createdAt,value
2022-08-17T00:00:43.456Z,5.13
2022-08-17T00:03:09.473Z,4.88
2022-08-17T00:05:42.396Z,5.75
2022-08-17T00:08:10.375Z,4.55
2022-08-17T00:10:38.851Z,5.30
2022-08-17T00:13:09.290Z,5.85
2022-08-17T00:15:37.627Z,4.68
2022-08-17T00:18:57.475Z,5.43
2022-08-17T00:20:55.802Z,5.47
2022-08-17T00:23:24.352Z,6.70
2022-08-17T00:25:53.161Z,5.47
2022-08-17T00:28:21.703Z,5.72
2022-08-17T00:30:52.905Z,5.68
2022-08-17T00:33:24.341Z,5.07
2022-08-17T00:35:52.809Z,5.35
2022-08-17T00:38:23.857Z,5.38
2022-08-17T00:40:55.934Z,5.45
2022-08-17T00:43:31.951Z,5.45
2022-08-17T00:46:00.969Z,5.75
2022-08-17T00:48:30.831Z,5.80
2022-08-17T00:51:03.970Z,6.15
2022-08-17T00:53:35.298Z,5.60
2022-08-17T00:56:09.050Z,6.65
2022-08-17T00:58:37.824Z,6.43
2022-08-17T01:01:07.672Z,5.45
2022-08-17T01:03:37.228Z,5.95
2022-08-17T01:06:09.038Z,6.88
2022-08-17T01:08:40.982Z,6.40
2022-08-17T01:11:10.263Z,6.63
2022-08-17T01:13:41.833Z,8.38
2022-08-17T01:16:17.209Z,7.18
2022-08-17T01:18:47.772Z,6.20
2022-08-17T01:21:28.601Z,5.25
2022-08-17T01:23:58.320Z,7.05
2022-08-17T01:26:26.527Z,6.13
2022-08-17T01:28:56.058Z,6.43
2022-08-17T01:31:26.511Z,6.68
2022-08-17T01:33:54.644Z,6.10
2022-08-17T01:36:22.808Z,6.20
2022-08-17T01:38:51.456Z,6.60
2022-08-17T01:41:24.957Z,5.47
2022-08-17T01:43:57.681Z,7.15
2022-08-17T01:46:27.936Z,6.47
2022-08-17T01:48:57.622Z,6.00
2022-08-17T01:51:27.040Z,6.05
2022-08-17T01:53:59.346Z,6.60
2022-08-17T01:56:30.614Z,6.35
2022-08-17T01:58:58.600Z,6.20
2022-08-17T02:01:29.926Z,6.32
2022-08-17T02:04:00.619Z,6.53
2022-08-17T02:06:31.428Z,6.40
2022-08-17T02:09:16.441Z,6.65
2022-08-17T02:11:46.946Z,7.13
2022-08-17T02:14:15.526Z,6.78
2022-08-17T02:16:43.732Z,6.57
2022-08-17T02:19:13.256Z,6.75
2022-08-17T02:21:42.321Z,6.15
2022-08-17T02:24:14.859Z,6.25
2022-08-17T02:26:43.203Z,6.68
2022-08-17T02:29:15.087Z,6.55
2022-08-17T02:31:43.103Z,6.53
2022-08-17T02:34:11.250Z,7.22
2022-08-17T02:36:39.319Z,7.47
2022-08-17T02:39:09.133Z,7.13
2022-08-17T02:41:37.468Z,7.10
2022-08-17T02:44:05.871Z,6.43
2022-08-17T02:46:35.267Z,6.47
2022-08-17T02:49:03.195Z,6.80
2022-08-17T02:51:31.498Z,6.68
2022-08-17T02:54:40.152Z,6.53
2022-08-17T02:56:47.336Z,6.77
2022-08-17T02:59:15.232Z,7.07
2022-08-17T03:01:44.595Z,7.30
2022-08-17T03:04:12.655Z,6.65
2022-08-17T03:06:40.560Z,7.18
2022-08-17T03:09:08.666Z,6.80
2022-08-17T03:11:36.581Z,6.50
2022-08-17T03:14:04.498Z,7.00
2022-08-17T03:16:32.949Z,6.68
2022-08-17T03:19:03.945Z,6.45
2022-08-17T03:21:31.908Z,6.57
2022-08-17T03:23:59.798Z,7.25
2022-08-17T03:26:29.831Z,6.68
2022-08-17T03:28:57.793Z,6.53
2022-08-17T03:31:25.702Z,6.47
2022-08-17T03:33:53.627Z,6.07
2022-08-17T03:36:22.851Z,5.72
2022-08-17T03:38:51.151Z,6.32
2022-08-17T03:41:19.082Z,6.07
2022-08-17T03:43:47.001Z,5.68
2022-08-17T03:46:34.569Z,5.72
2022-08-17T03:49:21.635Z,6.45
2022-08-17T03:52:08.484Z,6.18
2022-08-17T03:54:54.226Z,7.18
2022-08-17T03:57:22.357Z,6.47
2022-08-17T03:59:50.655Z,6.60
2022-08-17T04:02:22.303Z,6.00
2022-08-17T04:04:51.285Z,6.43
2022-08-17T04:07:21.908Z,6.97
2022-08-17T04:09:49.778Z,6.10
2022-08-17T04:12:19.141Z,6.20
2022-08-17T04:14:52.312Z,6.30
2022-08-17T04:17:24.076Z,6.65
2022-08-17T04:19:51.986Z,6.60
2022-08-17T04:22:33.318Z,6.28
2022-08-17T04:25:08.014Z,6.75
2022-08-17T04:27:36.387Z,7.10
2022-08-17T04:30:07.031Z,7.00
2022-08-17T04:33:05.527Z,7.03
2022-08-17T04:35:37.041Z,7.03
2022-08-17T04:38:06.749Z,7.00
2022-08-17T04:40:52.787Z,7.13
2022-08-17T04:43:22.068Z,6.60
2022-08-17T04:45:56.168Z,6.28
2022-08-17T04:48:35.822Z,6.63
2022-08-17T04:51:08.183Z,6.65
2022-08-17T04:53:37.551Z,6.57
2022-08-17T04:56:06.207Z,6.80
2022-08-17T04:58:34.201Z,6.43
2022-08-17T05:01:02.389Z,6.28
2022-08-17T05:03:31.009Z,5.93
2022-08-17T05:05:59.179Z,5.95
2022-08-17T05:08:27.162Z,6.22
2022-08-17T05:10:56.412Z,5.80
2022-08-17T05:13:26.860Z,5.68
2022-08-17T05:15:57.858Z,5.97
2022-08-17T05:18:26.583Z,5.20
2022-08-17T05:20:54.847Z,5.93
2022-08-17T05:23:25.159Z,6.88
2022-08-17T05:25:55.657Z,6.53
2022-08-17T05:28:28.143Z,7.10
2022-08-17T05:31:00.360Z,7.10
2022-08-17T05:33:30.503Z,6.78
2022-08-17T05:36:00.009Z,6.88
2022-08-17T05:38:30.187Z,8.13
2022-08-17T05:40:59.096Z,6.78
2022-08-17T05:43:30.097Z,7.50
2022-08-17T05:46:03.820Z,6.53
2022-08-17T05:48:40.051Z,7.07
2022-08-17T05:51:24.756Z,7.05
2022-08-17T05:54:01.393Z,7.00
2022-08-17T05:56:42.041Z,6.55
2022-08-17T05:59:20.178Z,6.13
2022-08-17T06:04:32.087Z,6.45
2022-08-17T06:07:10.041Z,6.40
2022-08-17T06:09:44.618Z,5.80
2022-08-17T06:12:29.439Z,5.60
2022-08-17T06:15:24.816Z,5.28
2022-08-17T06:17:56.066Z,5.15
2022-08-17T06:20:26.293Z,6.50
2022-08-17T06:23:03.821Z,5.55
2022-08-17T06:25:37.852Z,5.05
2022-08-17T06:28:09.273Z,4.72
2022-08-17T06:30:59.219Z,4.85
2022-08-17T06:33:34.258Z,5.15
2022-08-17T06:36:09.751Z,4.57
2022-08-17T06:38:46.878Z,6.95
2022-08-17T06:41:23.299Z,5.03
2022-08-17T06:43:59.388Z,5.28
2022-08-17T06:46:36.420Z,5.47
2022-08-17T06:49:14.240Z,5.63
2022-08-17T06:51:46.176Z,4.97
2022-08-17T06:54:24.528Z,4.88
2022-08-17T06:56:59.545Z,4.70
2022-08-17T06:59:36.300Z,5.28
2022-08-17T07:02:52.730Z,4.85
2022-08-17T07:05:25.112Z,5.43
2022-08-17T07:08:02.791Z,4.60
2022-08-17T07:10:36.888Z,4.57
2022-08-17T07:13:25.821Z,4.40
2022-08-17T07:16:00.572Z,4.32
2022-08-17T07:18:33.079Z,4.47
2022-08-17T07:21:11.078Z,4.10
2022-08-17T07:24:01.594Z,4.53
2022-08-17T07:26:29.663Z,4.28
2022-08-17T07:28:58.002Z,4.22
2022-08-17T07:31:30.438Z,3.92
2022-08-17T07:34:08.349Z,4.13
2022-08-17T07:36:36.387Z,4.43
2022-08-17T07:39:05.451Z,3.80
2022-08-17T07:41:57.863Z,4.03
2022-08-17T07:44:27.721Z,3.58
2022-08-17T07:47:19.112Z,4.28
2022-08-17T07:49:48.965Z,4.85
2022-08-17T07:52:50.691Z,4.35
2022-08-17T07:55:30.273Z,4.68
2022-08-17T07:57:59.361Z,5.10
2022-08-17T08:00:32.695Z,4.90
2022-08-17T08:03:23.723Z,4.10
2022-08-17T08:06:00.223Z,5.93
2022-08-17T08:08:33.073Z,4.40
2022-08-17T08:11:08.645Z,4.78
2022-08-17T08:13:45.023Z,4.53
2022-08-17T08:16:26.399Z,3.95
2022-08-17T08:18:58.155Z,4.07
2022-08-17T08:21:42.068Z,4.30
2022-08-17T08:24:30.905Z,4.70
2022-08-17T08:27:10.517Z,5.05
2022-08-17T08:29:49.346Z,5.13
2022-08-17T08:32:23.098Z,4.50
2022-08-17T08:35:04.073Z,4.85
2022-08-17T08:37:43.453Z,4.90
2022-08-17T08:40:29.854Z,4.82
2022-08-17T08:43:06.946Z,5.18
2022-08-17T08:45:44.174Z,5.03
2022-08-17T08:48:56.981Z,6.07
2022-08-17T08:51:17.524Z,4.70
2022-08-17T08:53:55.382Z,6.72
2022-08-17T08:56:32.157Z,5.20
2022-08-17T08:59:07.661Z,4.75
2022-08-17T09:01:47.917Z,5.03
2022-08-17T09:04:30.487Z,5.03
2022-08-17T09:07:11.796Z,4.65
2022-08-17T09:09:50.468Z,4.82
2022-08-17T09:12:26.416Z,6.00
2022-08-17T09:15:01.503Z,5.53
2022-08-17T09:17:37.418Z,5.72
2022-08-17T09:20:27.923Z,6.13
2022-08-17T09:23:03.890Z,6.22
2022-08-17T09:25:49.782Z,6.20
2022-08-17T09:28:21.310Z,6.03
2022-08-17T09:30:52.747Z,6.55
2022-08-17T09:33:26.196Z,6.22
2022-08-17T09:35:57.890Z,8.75
2022-08-17T09:38:32.662Z,8.10
2022-08-17T09:41:10.590Z,8.52
2022-08-17T09:43:44.236Z,9.63
2022-08-17T09:46:18.083Z,8.85
2022-08-17T09:48:55.216Z,8.70
2022-08-17T09:51:31.294Z,8.63
2022-08-17T09:54:15.110Z,9.40
2022-08-17T09:59:51.825Z,9.18
2022-08-17T10:02:43.720Z,7.80
2022-08-17T10:05:18.014Z,7.57
2022-08-17T10:07:55.499Z,7.75
2022-08-17T10:10:29.666Z,7.65
2022-08-17T10:13:11.694Z,6.68
2022-08-17T10:15:50.063Z,7.05
2022-08-17T10:18:31.762Z,6.30
2022-08-17T10:21:20.812Z,6.57
2022-08-17T10:24:10.608Z,5.97
2022-08-17T10:26:56.912Z,6.22
2022-08-17T10:29:46.163Z,6.43
2022-08-17T10:32:26.410Z,7.15
2022-08-17T10:35:14.559Z,6.28
2022-08-17T10:38:02.757Z,6.30
2022-08-17T10:40:38.982Z,5.93
2022-08-17T10:43:24.631Z,6.75
2022-08-17T10:46:10.671Z,7.50
2022-08-17T10:49:23.165Z,6.80
2022-08-17T10:51:54.366Z,7.47
2022-08-17T10:54:47.745Z,8.63
2022-08-17T10:57:38.850Z,8.50
2022-08-17T11:00:15.409Z,8.30
2022-08-17T11:02:51.878Z,7.60
2022-08-17T11:05:44.440Z,8.43
2022-08-17T11:08:46.365Z,7.50
2022-08-17T11:11:42.973Z,7.10
2022-08-17T11:14:31.740Z,7.85
2022-08-17T11:19:58.772Z,8.80
2022-08-17T11:22:57.882Z,8.98
2022-08-17T11:25:37.741Z,8.02
2022-08-17T11:28:10.384Z,7.90
2022-08-17T11:30:49.012Z,7.80
2022-08-17T11:33:57.685Z,7.72
2022-08-17T11:36:57.025Z,7.75
2022-08-17T11:42:05.858Z,7.57
2022-08-17T11:44:45.220Z,6.65
2022-08-17T11:47:38.142Z,5.88
2022-08-17T11:50:53.495Z,6.32
2022-08-17T11:54:21.498Z,5.65
2022-08-17T11:56:49.921Z,6.10
2022-08-17T11:59:59.024Z,6.55
2022-08-17T12:02:47.361Z,5.22
2022-08-17T12:05:33.223Z,5.72
2022-08-17T12:08:14.290Z,6.57
2022-08-17T12:10:55.178Z,6.88
2022-08-17T12:13:27.335Z,6.30
2022-08-17T12:15:59.956Z,5.93
2022-08-17T12:18:30.254Z,5.78
2022-08-17T12:21:12.028Z,5.07
2022-08-17T12:23:48.297Z,5.78
2022-08-17T12:26:20.379Z,7.20
2022-08-17T12:29:01.128Z,6.05
2022-08-17T12:31:33.579Z,6.90
2022-08-17T12:34:02.746Z,6.47
2022-08-17T12:36:31.460Z,6.65
2022-08-17T12:39:13.935Z,6.45
2022-08-17T12:41:46.723Z,6.30
2022-08-17T12:44:19.132Z,5.85
2022-08-17T12:46:51.227Z,4.85
2022-08-17T12:49:29.877Z,5.00
2022-08-17T12:52:09.097Z,5.20
2022-08-17T12:54:52.373Z,3.95
2022-08-17T12:57:23.396Z,3.78
2022-08-17T12:59:58.470Z,5.25
2022-08-17T13:02:44.158Z,4.35
2022-08-17T13:05:23.672Z,4.15
2022-08-17T13:07:53.139Z,3.60
2022-08-17T13:10:27.485Z,3.45
2022-08-17T13:13:02.937Z,4.05
2022-08-17T13:15:44.532Z,3.33
2022-08-17T13:18:39.437Z,4.65
2022-08-17T13:21:12.510Z,3.33
2022-08-17T13:23:44.787Z,2.88
2022-08-17T13:26:28.067Z,3.00
2022-08-17T13:28:56.134Z,3.00
2022-08-17T13:31:44.085Z,3.05
2022-08-17T13:34:38.687Z,3.25
2022-08-17T13:37:30.085Z,2.72
2022-08-17T13:40:00.475Z,3.10
2022-08-17T13:42:34.956Z,3.00
2022-08-17T13:45:38.855Z,3.40
2022-08-17T13:48:14.360Z,3.17
2022-08-17T13:50:45.133Z,3.40
2022-08-17T13:53:22.183Z,2.83
2022-08-17T13:55:52.788Z,3.35
2022-08-17T13:58:23.206Z,3.20
2022-08-17T14:00:51.720Z,3.70
2022-08-17T14:03:21.755Z,3.13
2022-08-17T14:05:50.877Z,3.10
2022-08-17T14:08:21.257Z,3.85
2022-08-17T14:10:59.123Z,3.85
2022-08-17T14:15:56.909Z,3.58
2022-08-17T14:18:43.556Z,3.88
2022-08-17T14:21:14.493Z,4.05
2022-08-17T14:23:43.906Z,3.78
2022-08-17T14:26:23.233Z,4.70
2022-08-17T14:28:56.733Z,3.78
2022-08-17T14:31:25.286Z,3.72
2022-08-17T14:33:54.663Z,3.85
2022-08-17T14:36:22.582Z,4.22
2022-08-17T14:38:50.484Z,3.78
2022-08-17T14:41:22.067Z,4.47
2022-08-17T14:43:51.311Z,4.28
2022-08-17T14:46:19.182Z,3.65
2022-08-17T14:48:47.222Z,3.97
2022-08-17T14:51:16.939Z,3.47
2022-08-17T14:53:45.813Z,3.33
2022-08-17T14:56:14.275Z,3.42
2022-08-17T14:58:42.517Z,4.05
2022-08-17T15:01:11.730Z,4.55
2022-08-17T15:03:40.856Z,4.10
2022-08-17T15:06:09.708Z,4.20
2022-08-17T15:08:39.002Z,4.13
2022-08-17T15:11:07.397Z,3.90
2022-08-17T15:13:52.063Z,3.85
2022-08-17T15:16:21.430Z,3.55
2022-08-17T15:18:50.093Z,4.38
2022-08-17T15:21:18.152Z,3.65
2022-08-17T15:23:47.733Z,3.60
2022-08-17T15:26:16.758Z,4.00
2022-08-17T15:28:44.674Z,3.50
2022-08-17T15:31:31.935Z,3.38
2022-08-17T15:34:00.513Z,4.13
2022-08-17T15:36:28.491Z,3.53
2022-08-17T15:38:58.737Z,4.22
2022-08-17T15:41:28.093Z,4.88
2022-08-17T15:43:56.914Z,4.70
2022-08-17T15:46:26.770Z,4.45
2022-08-17T15:48:58.268Z,4.18
2022-08-17T15:51:28.982Z,4.47
2022-08-17T15:54:04.458Z,4.40
2022-08-17T15:56:46.073Z,4.45
2022-08-17T15:59:13.975Z,3.85
2022-08-17T16:03:01.285Z,3.88
2022-08-17T16:04:31.836Z,4.45
2022-08-17T16:07:00.583Z,4.47
2022-08-17T16:09:29.818Z,4.15
2022-08-17T16:11:57.788Z,4.47
2022-08-17T16:14:32.414Z,4.65
2022-08-17T16:17:03.213Z,4.57
2022-08-17T16:19:32.419Z,4.07
2022-08-17T16:22:00.332Z,4.28
2022-08-17T16:24:30.120Z,4.90
2022-08-17T16:26:58.026Z,4.75
2022-08-17T16:29:25.931Z,4.10
2022-08-17T16:31:54.344Z,4.07
2022-08-17T16:34:22.279Z,4.40
2022-08-17T16:36:56.088Z,4.43
2022-08-17T16:39:26.466Z,4.50
2022-08-17T16:41:56.000Z,4.43
2022-08-17T16:44:24.737Z,4.65
2022-08-17T16:46:52.628Z,7.18
2022-08-17T16:49:35.088Z,3.63
2022-08-17T16:52:06.187Z,3.67
2022-08-17T16:54:35.515Z,3.78
2022-08-17T16:57:05.556Z,4.43
2022-08-17T16:59:41.031Z,4.35
2022-08-17T17:02:15.645Z,5.53
2022-08-17T17:04:48.968Z,5.55
2022-08-17T17:07:34.784Z,6.03
2022-08-17T17:10:06.856Z,5.43
2022-08-17T17:13:03.059Z,5.07
2022-08-17T17:15:33.145Z,4.78
2022-08-17T17:18:07.289Z,4.85
2022-08-17T17:20:41.239Z,4.68
2022-08-17T17:23:13.151Z,4.60
2022-08-17T17:25:48.806Z,4.53
2022-08-17T17:28:28.250Z,4.60
2022-08-17T17:31:02.348Z,5.35
2022-08-17T17:33:37.099Z,5.50
2022-08-17T17:36:13.865Z,3.80
2022-08-17T17:38:45.969Z,4.38
2022-08-17T17:41:23.888Z,5.05
2022-08-17T17:44:05.792Z,5.13
2022-08-17T17:46:39.457Z,3.95
2022-08-17T17:49:10.127Z,4.78
2022-08-17T17:52:05.285Z,4.18
2022-08-17T17:54:49.517Z,4.53
2022-08-17T17:57:30.081Z,5.22
2022-08-17T18:00:06.835Z,4.03
2022-08-17T18:02:51.217Z,4.95
2022-08-17T18:05:34.189Z,4.93
2022-08-17T18:08:11.047Z,5.43
2022-08-17T18:10:49.013Z,5.43
2022-08-17T18:15:54.264Z,5.63
2022-08-17T18:18:38.461Z,6.85
2022-08-17T18:21:15.678Z,5.63
2022-08-17T18:23:55.674Z,5.50
2022-08-17T18:26:44.895Z,4.93
2022-08-17T18:29:26.205Z,5.50
2022-08-17T18:32:23.555Z,5.15
2022-08-17T18:34:54.007Z,4.82
2022-08-17T18:37:38.047Z,4.57
2022-08-17T18:40:37.482Z,5.40
2022-08-17T18:43:14.923Z,4.82
2022-08-17T18:45:46.765Z,5.43
2022-08-17T18:48:28.125Z,5.20
2022-08-17T18:50:58.365Z,5.72
2022-08-17T18:53:38.603Z,5.00
2022-08-17T18:56:30.477Z,5.28
2022-08-17T18:59:10.371Z,5.55
2022-08-17T19:01:53.466Z,5.22
2022-08-17T19:04:34.776Z,5.22
2022-08-17T19:07:25.485Z,5.05
2022-08-17T19:09:58.026Z,5.88
2022-08-17T19:12:31.036Z,5.85
2022-08-17T19:15:01.228Z,4.50
2022-08-17T19:17:37.194Z,6.05
2022-08-17T19:20:15.077Z,5.70
2022-08-17T19:22:55.557Z,5.63
2022-08-17T19:25:28.355Z,5.10
2022-08-17T19:28:03.487Z,5.45
2022-08-17T19:30:32.753Z,5.43
2022-08-17T19:33:02.983Z,5.20
2022-08-17T19:35:43.490Z,5.15
2022-08-17T19:38:21.716Z,4.72
2022-08-17T19:41:01.822Z,5.55
2022-08-17T19:43:43.480Z,5.60
2022-08-17T19:46:26.043Z,5.45
2022-08-17T19:49:04.253Z,5.35
2022-08-17T19:51:41.555Z,5.50
2022-08-17T19:54:16.368Z,4.82
2022-08-17T19:56:56.498Z,5.00
2022-08-17T19:59:46.315Z,5.10
2022-08-17T20:02:24.650Z,5.30
2022-08-17T20:04:56.349Z,5.35
2022-08-17T20:07:29.996Z,4.93
2022-08-17T20:10:06.461Z,5.40
2022-08-17T20:12:37.485Z,6.22
2022-08-17T20:15:10.313Z,5.72
2022-08-17T20:17:41.478Z,5.38
2022-08-17T20:20:20.614Z,5.18
2022-08-17T20:25:30.270Z,5.95
2022-08-17T20:28:06.185Z,6.05
2022-08-17T20:30:38.381Z,5.28
2022-08-17T20:33:08.690Z,5.60
2022-08-17T20:36:01.248Z,5.57
2022-08-17T20:38:50.318Z,5.30
2022-08-17T20:41:22.505Z,5.72
2022-08-17T20:44:03.456Z,6.57
2022-08-17T20:46:52.469Z,5.50
2022-08-17T20:49:27.690Z,6.32
2022-08-17T20:52:02.393Z,5.97
2022-08-17T20:54:47.640Z,5.43
2022-08-17T20:57:45.573Z,5.85
2022-08-17T21:00:40.439Z,6.00
2022-08-17T21:03:51.329Z,6.10
2022-08-17T21:06:23.013Z,5.70
2022-08-17T21:08:54.742Z,5.53
2022-08-17T21:12:04.660Z,5.68
2022-08-17T21:14:59.576Z,5.63
2022-08-17T21:17:51.321Z,5.60
2022-08-17T21:20:44.234Z,5.97
2022-08-17T21:23:29.374Z,5.82
2022-08-17T21:26:20.913Z,5.90
2022-08-17T21:29:17.906Z,5.53
2022-08-17T21:32:19.080Z,6.40
2022-08-17T21:35:22.832Z,6.25
2022-08-17T21:37:54.864Z,6.65
2022-08-17T21:40:26.582Z,5.78
2022-08-17T21:42:58.122Z,5.60
2022-08-17T21:45:30.486Z,5.90
2022-08-17T21:48:14.360Z,5.32
2022-08-17T21:50:45.555Z,5.57
2022-08-17T21:53:23.306Z,5.93
2022-08-17T21:55:53.007Z,5.82
2022-08-17T21:58:29.830Z,4.90
2022-08-17T22:01:29.347Z,5.28
2022-08-17T22:04:05.133Z,4.78
2022-08-17T22:06:38.045Z,4.97
2022-08-17T22:09:18.784Z,4.63
2022-08-17T22:12:06.965Z,4.53
2022-08-17T22:14:53.143Z,5.35
2022-08-17T22:17:23.879Z,5.80
2022-08-17T22:19:56.382Z,5.32
2022-08-17T22:22:58.740Z,6.13
2022-08-17T22:25:29.449Z,5.22
2022-08-17T22:28:00.355Z,6.10
2022-08-17T22:30:37.290Z,6.00
2022-08-17T22:33:31.855Z,5.68
2022-08-17T22:36:13.369Z,5.80
2022-08-17T22:38:43.514Z,6.50
2022-08-17T22:41:39.082Z,6.25
2022-08-17T22:44:24.395Z,6.82
2022-08-17T22:46:59.722Z,6.90
2022-08-17T22:49:30.886Z,6.22
2022-08-17T22:52:07.334Z,6.63
2022-08-17T22:54:53.215Z,5.88
2022-08-17T22:57:42.421Z,6.70
2022-08-17T23:00:30.497Z,6.07
2022-08-17T23:03:15.477Z,7.20
2022-08-17T23:05:46.144Z,7.00
2022-08-17T23:08:21.012Z,7.22
2022-08-17T23:10:49.755Z,7.18
2022-08-17T23:13:17.645Z,6.65
2022-08-17T23:15:45.833Z,7.22
2022-08-17T23:18:13.724Z,6.85
2022-08-17T23:20:42.678Z,7.25
2022-08-17T23:23:12.417Z,7.70
2022-08-17T23:25:44.405Z,7.68
2022-08-17T23:28:12.350Z,6.95
2022-08-17T23:30:44.104Z,7.32
2022-08-17T23:33:27.357Z,7.70
2022-08-17T23:35:55.194Z,7.95
2022-08-17T23:38:27.015Z,7.78
2022-08-17T23:40:59.867Z,8.25
2022-08-17T23:43:30.126Z,8.13
2022-08-17T23:45:59.887Z,7.88
2022-08-17T23:48:35.774Z,8.35
2022-08-17T23:51:08.990Z,8.57
2022-08-17T23:53:40.168Z,8.40
2022-08-17T23:56:11.179Z,7.53
2022-08-17T23:58:42.060Z,7.40
